createdAt,value
2018-07-20T00:00:56.257Z,29.90
2018-07-20T00:03:30.541Z,29.90
2018-07-20T00:06:03.752Z,29.90
2018-07-20T00:08:36.689Z,29.90
2018-07-20T00:11:09.830Z,29.90
2018-07-20T00:13:42.837Z,29.90
2018-07-20T00:18:47.824Z,29.90
2018-07-20T00:21:21.248Z,29.90
2018-07-20T00:23:54.368Z,29.90
2018-07-20T00:26:27.544Z,29.90
2018-07-20T00:29:00.734Z,29.90
2018-07-20T00:31:33.787Z,29.90
2018-07-20T00:34:07.218Z,29.90
2018-07-20T00:36:40.340Z,29.90
2018-07-20T00:39:13.718Z,29.90
2018-07-20T00:41:46.706Z,29.90
2018-07-20T00:44:20.297Z,29.90
2018-07-20T00:46:53.411Z,29.90
2018-07-20T00:49:26.397Z,29.90
2018-07-20T00:51:59.614Z,29.90
2018-07-20T00:54:32.842Z,29.90
2018-07-20T00:57:06.120Z,29.90
2018-07-20T00:59:39.950Z,29.90
2018-07-20T01:02:13.006Z,29.90
2018-07-20T01:04:46.244Z,29.90
2018-07-20T01:07:19.371Z,29.90
2018-07-20T01:09:52.539Z,29.90
2018-07-20T01:12:25.650Z,29.90
2018-07-20T01:14:58.622Z,30.00
2018-07-20T01:17:31.855Z,30.00
2018-07-20T01:22:36.969Z,29.90
2018-07-20T01:25:09.979Z,30.00
2018-07-20T01:27:43.759Z,29.90
2018-07-20T01:30:16.836Z,30.00
2018-07-20T01:32:49.834Z,29.90
2018-07-20T01:35:23.891Z,29.90
2018-07-20T01:37:56.946Z,30.00
2018-07-20T01:40:29.974Z,30.00
2018-07-20T01:43:03.295Z,30.00
2018-07-20T01:45:36.303Z,30.00
2018-07-20T01:48:09.544Z,30.00
2018-07-20T01:50:42.582Z,30.00
2018-07-20T01:53:15.671Z,30.00
2018-07-20T01:55:48.618Z,30.00
2018-07-20T01:58:21.701Z,30.00
2018-07-20T02:00:55.057Z,30.00
2018-07-20T02:03:28.107Z,30.00
2018-07-20T02:06:02.164Z,30.00
2018-07-20T02:08:35.209Z,30.10
2018-07-20T02:11:08.310Z,30.10
2018-07-20T02:16:13.515Z,30.00
2018-07-20T02:18:46.545Z,30.00
2018-07-20T02:21:19.600Z,30.10
2018-07-20T02:23:52.654Z,30.10
2018-07-20T02:26:25.757Z,30.10
2018-07-20T02:28:58.959Z,30.10
2018-07-20T02:31:32.391Z,30.10
2018-07-20T02:34:05.383Z,30.10
2018-07-20T02:36:38.447Z,30.10
2018-07-20T02:39:14.697Z,30.10
2018-07-20T02:41:47.758Z,30.10
2018-07-20T02:44:20.821Z,30.10
2018-07-20T02:46:53.876Z,30.10
2018-07-20T02:49:26.932Z,30.10
2018-07-20T02:52:00.034Z,30.20
2018-07-20T02:54:33.034Z,30.20
2018-07-20T02:57:06.486Z,30.20
2018-07-20T02:59:39.615Z,30.20
2018-07-20T03:02:12.623Z,30.20
2018-07-20T03:04:45.705Z,30.20
2018-07-20T03:07:18.773Z,30.20
2018-07-20T03:09:52.357Z,30.30
2018-07-20T03:12:25.366Z,30.30
2018-07-20T03:14:58.467Z,30.30
2018-07-20T03:17:31.436Z,30.20
2018-07-20T03:22:37.585Z,30.30
2018-07-20T03:25:10.566Z,30.30
2018-07-20T03:27:44.296Z,30.30
2018-07-20T03:30:17.761Z,30.30
2018-07-20T03:32:50.808Z,30.30
2018-07-20T03:35:23.922Z,30.40
2018-07-20T03:37:56.938Z,30.40
2018-07-20T03:40:30.265Z,30.40
2018-07-20T03:43:03.293Z,30.40
2018-07-20T03:45:36.357Z,30.40
2018-07-20T03:48:09.397Z,30.50
2018-07-20T03:50:43.380Z,30.40
2018-07-20T03:53:16.788Z,30.50
2018-07-20T03:55:49.877Z,30.50
2018-07-20T03:58:22.834Z,30.50
2018-07-20T04:00:55.807Z,30.50
2018-07-20T04:03:28.903Z,30.50
2018-07-20T04:06:03.523Z,30.50
2018-07-20T04:08:36.496Z,30.50
2018-07-20T04:11:09.932Z,30.60
2018-07-20T04:13:42.897Z,30.50
2018-07-20T04:16:15.992Z,30.60
2018-07-20T04:18:49.122Z,30.60
2018-07-20T04:21:22.187Z,30.60
2018-07-20T04:23:55.587Z,30.60
2018-07-20T04:26:28.587Z,30.60
2018-07-20T04:29:01.488Z,30.60
2018-07-20T04:31:34.557Z,30.60
2018-07-20T04:34:07.654Z,30.70
2018-07-20T04:36:41.896Z,30.60
2018-07-20T04:39:16.531Z,30.70
2018-07-20T04:41:49.622Z,30.70
2018-07-20T04:44:22.594Z,30.70
2018-07-20T04:46:55.579Z,30.70
2018-07-20T04:49:29.216Z,30.70
2018-07-20T04:52:02.350Z,30.80
2018-07-20T04:54:35.614Z,30.80
2018-07-20T04:57:08.542Z,30.70
2018-07-20T04:59:41.521Z,30.80
2018-07-20T05:02:15.055Z,30.80
2018-07-20T05:04:48.241Z,30.80
2018-07-20T05:07:22.579Z,30.80
2018-07-20T05:09:55.706Z,30.80
2018-07-20T05:12:28.731Z,30.80
2018-07-20T05:15:01.791Z,30.80
2018-07-20T05:17:34.826Z,30.80
2018-07-20T05:20:08.586Z,30.80
2018-07-20T05:22:41.797Z,30.80
2018-07-20T05:25:14.763Z,30.90
2018-07-20T05:27:47.714Z,30.80
2018-07-20T05:30:20.754Z,30.80
2018-07-20T05:32:55.450Z,30.80
2018-07-20T05:35:28.609Z,30.90
2018-07-20T05:38:01.548Z,30.80
2018-07-20T05:40:34.598Z,30.90
2018-07-20T05:43:07.727Z,30.80
2018-07-20T05:45:42.316Z,30.90
2018-07-20T05:48:15.365Z,30.90
2018-07-20T05:50:49.381Z,30.90
2018-07-20T05:53:22.361Z,30.90
2018-07-20T05:55:55.339Z,30.90
2018-07-20T05:58:28.941Z,30.90
2018-07-20T06:01:01.967Z,30.90
2018-07-20T06:03:35.649Z,30.90
2018-07-20T06:06:08.872Z,30.90
2018-07-20T06:08:41.960Z,30.90
2018-07-20T06:11:15.060Z,30.90
2018-07-20T06:13:48.733Z,30.90
2018-07-20T06:16:22.334Z,30.90
2018-07-20T06:18:55.494Z,30.90
2018-07-20T06:21:28.610Z,30.90
2018-07-20T06:24:01.650Z,30.90
2018-07-20T06:26:34.601Z,31.00
2018-07-20T06:29:08.088Z,31.00
2018-07-20T06:31:41.062Z,31.00
2018-07-20T06:34:14.226Z,31.00
2018-07-20T06:36:47.216Z,31.00
2018-07-20T06:39:20.239Z,31.00
2018-07-20T06:41:53.708Z,31.10
2018-07-20T06:44:26.787Z,31.10
2018-07-20T06:47:00.184Z,31.10
2018-07-20T06:49:33.224Z,31.10
2018-07-20T06:52:07.169Z,31.00
2018-07-20T06:54:40.664Z,31.10
2018-07-20T06:57:19.551Z,31.00
2018-07-20T06:59:53.246Z,31.10
2018-07-20T07:02:26.206Z,31.10
2018-07-20T07:04:59.157Z,31.10
2018-07-20T07:07:32.261Z,31.00
2018-07-20T07:10:05.167Z,31.10
2018-07-20T07:12:38.502Z,31.00
2018-07-20T07:15:11.556Z,31.10
2018-07-20T07:20:16.559Z,31.10
2018-07-20T07:22:49.541Z,31.00
2018-07-20T07:25:22.849Z,31.10
2018-07-20T07:27:55.977Z,31.00
2018-07-20T07:30:28.921Z,31.00
2018-07-20T07:33:01.874Z,31.00
2018-07-20T07:35:34.899Z,31.00
2018-07-20T07:38:10.540Z,31.00
2018-07-20T07:40:43.515Z,31.00
2018-07-20T07:45:48.293Z,31.00
2018-07-20T07:48:21.298Z,31.10
2018-07-20T07:50:57.244Z,31.10
2018-07-20T07:53:30.220Z,31.00
2018-07-20T07:56:04.291Z,31.00
2018-07-20T07:58:37.395Z,31.00
2018-07-20T08:01:11.754Z,31.00
2018-07-20T08:03:44.791Z,31.00
2018-07-20T08:06:17.875Z,31.00
2018-07-20T08:08:51.623Z,31.00
2018-07-20T08:11:24.728Z,31.00
2018-07-20T08:13:57.646Z,31.00
2018-07-20T08:16:30.676Z,31.00
2018-07-20T08:19:03.604Z,31.00
2018-07-20T08:21:37.464Z,31.00
2018-07-20T08:24:10.556Z,31.00
2018-07-20T08:26:43.539Z,31.00
2018-07-20T08:29:17.516Z,31.00
2018-07-20T08:31:50.606Z,31.00
2018-07-20T08:37:54.653Z,31.00
2018-07-20T08:40:27.878Z,31.00
2018-07-20T08:43:00.915Z,31.00
2018-07-20T08:45:35.186Z,31.00
2018-07-20T08:48:08.615Z,31.00
2018-07-20T08:53:14.126Z,31.00
2018-07-20T08:55:47.118Z,31.00
2018-07-20T08:58:20.498Z,31.00
2018-07-20T09:00:53.515Z,31.00
2018-07-20T09:03:26.661Z,31.00
2018-07-20T09:05:59.783Z,31.00
2018-07-20T09:08:33.242Z,31.00
2018-07-20T09:13:39.743Z,31.00
2018-07-20T09:16:13.798Z,31.00
2018-07-20T09:18:46.831Z,31.00
2018-07-20T09:21:19.839Z,31.00
2018-07-20T09:23:54.027Z,31.00
2018-07-20T09:26:27.013Z,31.00
2018-07-20T09:29:00.062Z,31.00
2018-07-20T09:31:33.084Z,30.90
2018-07-20T09:34:06.258Z,30.90
2018-07-20T09:36:39.687Z,30.90
2018-07-20T09:39:14.097Z,30.90
2018-07-20T09:41:48.722Z,30.90
2018-07-20T09:44:21.853Z,30.90
2018-07-20T09:46:54.890Z,30.90
2018-07-20T09:49:27.826Z,30.90
2018-07-20T09:52:00.881Z,30.90
2018-07-20T09:54:36.791Z,30.90
2018-07-20T09:57:09.895Z,30.90
2018-07-20T09:59:43.799Z,30.90
2018-07-20T10:02:17.825Z,30.80
2018-07-20T10:04:50.872Z,30.80
2018-07-20T10:07:25.094Z,30.80
2018-07-20T10:09:58.196Z,30.90
2018-07-20T10:12:31.178Z,30.90
2018-07-20T10:15:04.322Z,30.90
2018-07-20T10:17:37.299Z,30.90
2018-07-20T10:20:11.519Z,30.90
2018-07-20T10:22:45.743Z,30.80
2018-07-20T10:25:18.842Z,30.80
2018-07-20T10:27:52.022Z,30.90
2018-07-20T10:30:25.348Z,30.80
2018-07-20T10:32:58.481Z,30.90
2018-07-20T10:35:31.428Z,30.80
2018-07-20T10:40:36.731Z,30.80
2018-07-20T10:43:09.795Z,30.80
2018-07-20T10:45:44.008Z,30.80
2018-07-20T10:48:16.973Z,30.80
2018-07-20T10:53:23.141Z,30.80
2018-07-20T10:55:56.265Z,30.80
2018-07-20T10:58:30.235Z,30.80
2018-07-20T11:01:03.266Z,30.80
2018-07-20T11:03:37.115Z,30.80
2018-07-20T11:06:10.177Z,30.80
2018-07-20T11:08:43.218Z,30.80
2018-07-20T11:11:16.273Z,30.80
2018-07-20T11:13:49.367Z,30.70
2018-07-20T11:16:22.741Z,30.80
2018-07-20T11:18:55.811Z,30.70
2018-07-20T11:21:29.173Z,30.80
2018-07-20T11:24:02.131Z,30.70
2018-07-20T11:26:35.219Z,30.70
2018-07-20T11:29:08.282Z,30.70
2018-07-20T11:31:41.262Z,30.70
2018-07-20T11:34:15.730Z,30.70
2018-07-20T11:36:49.558Z,30.70
2018-07-20T11:39:22.623Z,30.70
2018-07-20T11:41:55.690Z,30.70
2018-07-20T11:44:28.651Z,30.70
2018-07-20T11:47:02.458Z,30.70
2018-07-20T11:49:35.380Z,30.70
2018-07-20T11:52:08.409Z,30.70
2018-07-20T11:54:41.438Z,30.70
2018-07-20T11:57:14.529Z,30.70
2018-07-20T11:59:48.050Z,30.70
2018-07-20T12:02:21.112Z,30.70
2018-07-20T12:04:54.867Z,30.60
2018-07-20T12:07:28.713Z,30.70
2018-07-20T12:10:02.309Z,30.60
2018-07-20T12:12:35.840Z,30.60
2018-07-20T12:15:09.153Z,30.70
2018-07-20T12:17:42.850Z,30.70
2018-07-20T12:20:16.231Z,30.60
2018-07-20T12:22:49.311Z,30.60
2018-07-20T12:25:22.370Z,30.60
2018-07-20T12:27:55.355Z,30.60
2018-07-20T12:30:29.482Z,30.60
2018-07-20T12:33:02.685Z,30.60
2018-07-20T12:35:35.782Z,30.60
2018-07-20T12:38:08.771Z,30.60
2018-07-20T12:40:41.990Z,30.60
2018-07-20T12:43:29.199Z,30.60
2018-07-20T12:46:02.205Z,30.60
2018-07-20T12:48:35.335Z,30.60
2018-07-20T12:51:08.689Z,30.60
2018-07-20T12:53:41.678Z,30.60
2018-07-20T12:58:47.939Z,30.50
2018-07-20T13:01:21.125Z,30.50
2018-07-20T13:03:54.116Z,30.50
2018-07-20T13:06:28.287Z,30.50
2018-07-20T13:09:02.365Z,30.50
2018-07-20T13:11:35.286Z,30.50
2018-07-20T13:14:09.004Z,30.50
2018-07-20T13:16:42.176Z,30.50
2018-07-20T13:19:15.135Z,30.50
2018-07-20T13:21:48.129Z,30.40
2018-07-20T13:24:21.219Z,30.50
2018-07-20T13:26:54.513Z,30.50
2018-07-20T13:29:27.627Z,30.50
2018-07-20T13:32:00.702Z,30.50
2018-07-20T13:34:33.691Z,30.40
2018-07-20T13:37:06.737Z,30.40
2018-07-20T13:39:39.937Z,30.40
2018-07-20T13:42:12.965Z,30.40
2018-07-20T13:44:46.066Z,30.40
2018-07-20T13:47:19.163Z,30.40
2018-07-20T13:49:52.072Z,30.40
2018-07-20T13:52:27.374Z,30.40
2018-07-20T13:55:00.412Z,30.30
2018-07-20T13:57:33.497Z,30.40
2018-07-20T14:00:06.751Z,30.30
2018-07-20T14:02:39.735Z,30.40
2018-07-20T14:05:13.322Z,30.30
2018-07-20T14:07:46.453Z,30.40
2018-07-20T14:10:19.691Z,30.30
2018-07-20T14:12:52.707Z,30.30
2018-07-20T14:15:25.818Z,30.30
2018-07-20T14:17:58.935Z,30.30
2018-07-20T14:20:32.050Z,30.30
2018-07-20T14:23:05.325Z,30.30
2018-07-20T14:25:38.882Z,30.30
2018-07-20T14:28:11.838Z,30.30
2018-07-20T14:30:44.895Z,30.30
2018-07-20T14:33:17.948Z,30.30
2018-07-20T14:35:51.523Z,30.30
2018-07-20T14:38:24.642Z,30.20
2018-07-20T14:40:57.661Z,30.30
2018-07-20T14:43:31.730Z,30.30
2018-07-20T14:46:04.775Z,30.30
2018-07-20T14:48:38.482Z,30.30
2018-07-20T14:51:11.507Z,30.20
2018-07-20T14:53:44.708Z,30.30
2018-07-20T14:56:17.858Z,30.20
2018-07-20T14:58:50.884Z,30.20
2018-07-20T15:01:23.943Z,30.20
2018-07-20T15:03:57.869Z,30.20
2018-07-20T15:06:31.560Z,30.20
2018-07-20T15:09:04.916Z,30.20
2018-07-20T15:11:37.914Z,30.20
2018-07-20T15:14:10.949Z,30.20
2018-07-20T15:16:44.065Z,30.20
2018-07-20T15:21:49.531Z,30.20
2018-07-20T15:24:22.661Z,30.20
2018-07-20T15:26:55.701Z,30.20
2018-07-20T15:29:28.758Z,30.10
2018-07-20T15:32:03.256Z,30.10
2018-07-20T15:34:36.294Z,30.10
2018-07-20T15:37:09.446Z,30.10
2018-07-20T15:39:42.548Z,30.10
2018-07-20T15:42:15.635Z,30.10
2018-07-20T15:44:48.883Z,30.10
2018-07-20T15:47:21.988Z,30.10
2018-07-20T15:49:56.215Z,30.10
2018-07-20T15:55:03.555Z,30.10
2018-07-20T15:57:36.648Z,30.10
2018-07-20T16:00:09.964Z,30.10
2018-07-20T16:05:14.890Z,30.10
2018-07-20T16:07:47.897Z,30.10
2018-07-20T16:10:21.425Z,30.10
2018-07-20T16:12:54.393Z,30.10
2018-07-20T16:17:59.391Z,30.00
2018-07-20T16:20:32.383Z,30.00
2018-07-20T16:23:05.441Z,30.00
2018-07-20T16:25:38.557Z,30.00
2018-07-20T16:28:12.954Z,30.00
2018-07-20T16:30:45.981Z,30.00
2018-07-20T16:33:18.947Z,30.00
2018-07-20T16:35:52.931Z,30.00
2018-07-20T16:38:26.054Z,29.90
2018-07-20T16:40:59.599Z,29.90
2018-07-20T16:43:32.626Z,29.90
2018-07-20T16:46:06.562Z,29.90
2018-07-20T16:48:39.674Z,29.90
2018-07-20T16:51:12.794Z,29.90
2018-07-20T16:53:45.738Z,29.90
2018-07-20T16:56:18.789Z,29.90
2018-07-20T16:58:52.163Z,29.90
2018-07-20T17:01:25.125Z,29.80
2018-07-20T17:03:58.136Z,29.80
2018-07-20T17:06:31.107Z,29.80
2018-07-20T17:09:04.130Z,29.80
2018-07-20T17:11:37.270Z,29.80
2018-07-20T17:14:10.569Z,29.80
2018-07-20T17:19:15.548Z,29.80
2018-07-20T17:21:49.363Z,29.80
2018-07-20T17:24:23.143Z,29.80
2018-07-20T17:26:56.236Z,29.80
2018-07-20T17:29:31.083Z,29.80
2018-07-20T17:32:04.190Z,29.80
2018-07-20T17:34:37.230Z,29.70
2018-07-20T17:37:10.243Z,29.70
2018-07-20T17:39:43.293Z,29.70
2018-07-20T17:42:16.282Z,29.70
2018-07-20T17:44:49.299Z,29.70
2018-07-20T17:47:22.291Z,29.70
2018-07-20T17:49:55.428Z,29.70
2018-07-20T17:52:28.366Z,29.70
2018-07-20T17:55:01.964Z,29.70
2018-07-20T17:57:34.970Z,29.70
2018-07-20T18:00:08.553Z,29.70
2018-07-20T18:02:41.516Z,29.70
2018-07-20T18:05:14.471Z,29.60
2018-07-20T18:07:47.474Z,29.60
2018-07-20T18:10:20.555Z,29.60
2018-07-20T18:12:55.950Z,29.60
2018-07-20T18:15:29.014Z,29.60
2018-07-20T18:18:02.075Z,29.60
2018-07-20T18:20:35.203Z,29.60
2018-07-20T18:23:08.319Z,29.60
2018-07-20T18:25:41.666Z,29.60
2018-07-20T18:28:14.603Z,29.60
2018-07-20T18:30:47.585Z,29.60
2018-07-20T18:33:25.031Z,29.60
2018-07-20T18:35:57.939Z,29.60
2018-07-20T18:38:31.586Z,29.50
2018-07-20T18:41:04.704Z,29.60
2018-07-20T18:43:37.726Z,29.50
2018-07-20T18:46:10.691Z,29.50
2018-07-20T18:48:43.577Z,29.50
2018-07-20T18:51:17.011Z,29.50
2018-07-20T18:53:49.968Z,29.50
2018-07-20T18:56:22.991Z,29.50
2018-07-20T18:58:55.989Z,29.50
2018-07-20T19:01:29.276Z,29.50
2018-07-20T19:04:02.735Z,29.50
2018-07-20T19:06:35.773Z,29.50
2018-07-20T19:09:10.842Z,29.50
2018-07-20T19:11:44.758Z,29.50
2018-07-20T19:14:17.751Z,29.40
2018-07-20T19:16:50.890Z,29.40
2018-07-20T19:19:24.005Z,29.40
2018-07-20T19:24:30.343Z,29.40
2018-07-20T19:27:03.416Z,29.40
2018-07-20T19:29:36.572Z,29.40
2018-07-20T19:32:09.759Z,29.40
2018-07-20T19:37:14.664Z,29.40
2018-07-20T19:39:47.727Z,29.40
2018-07-20T19:42:20.796Z,29.40
2018-07-20T19:44:53.900Z,29.40
2018-07-20T19:47:27.700Z,29.40
2018-07-20T19:50:00.688Z,29.40
2018-07-20T19:52:36.594Z,29.40
2018-07-20T19:55:09.647Z,29.40
2018-07-20T19:57:42.630Z,29.40
2018-07-20T20:00:15.530Z,29.30
2018-07-20T20:02:48.533Z,29.30
2018-07-20T20:05:22.085Z,29.30
2018-07-20T20:07:55.295Z,29.30
2018-07-20T20:10:28.351Z,29.30
2018-07-20T20:13:01.460Z,29.30
2018-07-20T20:15:34.514Z,29.30
2018-07-20T20:18:07.769Z,29.30
2018-07-20T20:20:40.770Z,29.30
2018-07-20T20:23:14.670Z,29.30
2018-07-20T20:25:48.424Z,29.30
2018-07-20T20:28:21.511Z,29.20
2018-07-20T20:30:55.214Z,29.20
2018-07-20T20:33:28.241Z,29.20
2018-07-20T20:36:01.432Z,29.20
2018-07-20T20:38:34.482Z,29.20
2018-07-20T20:41:07.584Z,29.20
2018-07-20T20:43:41.325Z,29.20
2018-07-20T20:46:14.424Z,29.20
2018-07-20T20:48:47.412Z,29.20
2018-07-20T20:51:20.506Z,29.20
2018-07-20T20:53:53.491Z,29.20
2018-07-20T20:58:57.995Z,29.20
2018-07-20T21:01:31.700Z,29.20
2018-07-20T21:04:04.720Z,29.20
2018-07-20T21:06:37.782Z,29.20
2018-07-20T21:09:12.190Z,29.20
2018-07-20T21:11:45.335Z,29.10
2018-07-20T21:14:19.715Z,29.20
2018-07-20T21:16:52.686Z,29.10
2018-07-20T21:19:25.820Z,29.10
2018-07-20T21:21:59.352Z,29.10
2018-07-20T21:24:32.436Z,29.10
2018-07-20T21:29:38.643Z,29.10
2018-07-20T21:32:11.719Z,29.10
2018-07-20T21:34:44.687Z,29.10
2018-07-20T21:37:17.688Z,29.10
2018-07-20T21:39:53.129Z,29.10
2018-07-20T21:42:26.222Z,29.10
2018-07-20T21:44:59.224Z,29.10
2018-07-20T21:47:32.222Z,29.10
2018-07-20T21:50:05.218Z,29.10
2018-07-20T21:52:38.278Z,29.10
2018-07-20T21:55:11.290Z,29.10
2018-07-20T21:57:45.051Z,29.10
2018-07-20T22:00:21.333Z,29.10
2018-07-20T22:02:54.659Z,29.00
2018-07-20T22:05:27.594Z,29.00
2018-07-20T22:08:00.590Z,29.00
2018-07-20T22:10:34.118Z,29.00
2018-07-20T22:13:07.248Z,29.00
2018-07-20T22:15:40.306Z,29.00
2018-07-20T22:18:13.316Z,29.00
2018-07-20T22:20:46.394Z,29.00
2018-07-20T22:23:20.396Z,29.00
2018-07-20T22:25:54.266Z,29.00
2018-07-20T22:28:28.775Z,29.00
2018-07-20T22:31:01.682Z,29.00
2018-07-20T22:33:34.803Z,29.00
2018-07-20T22:36:07.764Z,29.00
2018-07-20T22:38:40.766Z,29.00
2018-07-20T22:41:14.457Z,29.00
2018-07-20T22:43:47.510Z,29.00
2018-07-20T22:46:20.585Z,29.00
2018-07-20T22:48:53.716Z,29.00
2018-07-20T22:51:26.775Z,29.00
2018-07-20T22:54:00.567Z,29.00
2018-07-20T22:56:33.591Z,29.00
2018-07-20T22:59:06.601Z,28.90
2018-07-20T23:01:39.468Z,28.90
2018-07-20T23:04:12.463Z,28.90
2018-07-20T23:06:45.909Z,28.90
2018-07-20T23:09:18.963Z,29.00
2018-07-20T23:11:52.230Z,28.90
2018-07-20T23:14:25.334Z,28.90
2018-07-20T23:16:58.434Z,28.90
2018-07-20T23:19:31.511Z,28.90
2018-07-20T23:22:04.610Z,28.90
2018-07-20T23:24:37.965Z,28.90
2018-07-20T23:27:10.975Z,28.90
2018-07-20T23:29:44.454Z,28.90
2018-07-20T23:32:17.417Z,28.90
2018-07-20T23:34:50.525Z,28.90
2018-07-20T23:37:23.724Z,28.90
2018-07-20T23:39:56.759Z,28.90
2018-07-20T23:42:29.694Z,28.90
2018-07-20T23:45:02.846Z,28.90
2018-07-20T23:47:35.926Z,28.80
2018-07-20T23:50:09.970Z,28.80
2018-07-20T23:52:42.937Z,28.80
2018-07-20T23:55:17.152Z,28.80
2018-07-20T23:57:50.014Z,28.80
